sensor_id;sensor_type;location;lat;lon;timestamp;P1;durP1;ratioP1;P2;durP2;ratioP2
25351;SDS011;13304;48.464;8.712;2024-02-14T00:02:10;8.23;;;3.88;;
25351;SDS011;13304;48.464;8.712;2024-02-14T00:05:01;8.70;;;3.72;;
25351;SDS011;13304;48.464;8.712;2024-02-14T00:07:29;14.00;;;4.88;;
25351;SDS011;13304;48.464;8.712;2024-02-14T00:10:29;15.30;;;4.70;;
25351;SDS011;13304;48.464;8.712;2024-02-14T00:13:21;7.03;;;3.78;;
25351;SDS011;13304;48.464;8.712;2024-02-14T00:16:07;8.25;;;4.40;;
25351;SDS011;13304;48.464;8.712;2024-02-14T00:18:43;7.60;;;4.00;;
25351;SDS011;13304;48.464;8.712;2024-02-14T00:21:31;11.80;;;4.70;;
25351;SDS011;13304;48.464;8.712;2024-02-14T00:24:01;11.60;;;4.50;;
25351;SDS011;13304;48.464;8.712;2024-02-14T00:26:26;8.88;;;3.53;;
25351;SDS011;13304;48.464;8.712;2024-02-14T00:28:52;9.50;;;3.67;;
25351;SDS011;13304;48.464;8.712;2024-02-14T00:31:18;10.50;;;3.80;;
25351;SDS011;13304;48.464;8.712;2024-02-14T00:33:43;10.57;;;4.32;;
25351;SDS011;13304;48.464;8.712;2024-02-14T00:36:11;8.63;;;3.33;;
25351;SDS011;13304;48.464;8.712;2024-02-14T00:38:37;9.00;;;4.03;;
25351;SDS011;13304;48.464;8.712;2024-02-14T00:41:02;8.77;;;3.60;;
25351;SDS011;13304;48.464;8.712;2024-02-14T00:43:28;9.05;;;3.95;;
25351;SDS011;13304;48.464;8.712;2024-02-14T00:45:54;10.75;;;4.45;;
25351;SDS011;13304;48.464;8.712;2024-02-14T00:48:21;8.05;;;4.32;;
25351;SDS011;13304;48.464;8.712;2024-02-14T00:50:47;8.35;;;3.97;;
25351;SDS011;13304;48.464;8.712;2024-02-14T00:53:13;10.18;;;4.13;;
25351;SDS011;13304;48.464;8.712;2024-02-14T00:55:39;9.73;;;4.28;;
25351;SDS011;13304;48.464;8.712;2024-02-14T00:58:07;8.13;;;4.20;;
25351;SDS011;13304;48.464;8.712;2024-02-14T01:00:33;13.90;;;4.47;;
25351;SDS011;13304;48.464;8.712;2024-02-14T01:02:58;11.50;;;4.88;;
25351;SDS011;13304;48.464;8.712;2024-02-14T01:05:24;11.30;;;4.68;;
25351;SDS011;13304;48.464;8.712;2024-02-14T01:07:50;10.75;;;4.57;;
25351;SDS011;13304;48.464;8.712;2024-02-14T01:10:16;9.70;;;4.82;;
25351;SDS011;13304;48.464;8.712;2024-02-14T01:12:43;11.80;;;4.78;;
25351;SDS011;13304;48.464;8.712;2024-02-14T01:15:09;13.73;;;4.65;;
25351;SDS011;13304;48.464;8.712;2024-02-14T01:17:35;9.10;;;4.70;;
25351;SDS011;13304;48.464;8.712;2024-02-14T01:20:03;13.82;;;4.55;;
25351;SDS011;13304;48.464;8.712;2024-02-14T01:22:30;10.43;;;4.70;;
25351;SDS011;13304;48.464;8.712;2024-02-14T01:24:55;9.50;;;4.38;;
25351;SDS011;13304;48.464;8.712;2024-02-14T01:27:21;8.27;;;4.30;;
25351;SDS011;13304;48.464;8.712;2024-02-14T01:29:47;8.45;;;4.10;;
25351;SDS011;13304;48.464;8.712;2024-02-14T01:32:13;8.45;;;3.95;;
25351;SDS011;13304;48.464;8.712;2024-02-14T01:34:39;10.80;;;3.85;;
25351;SDS011;13304;48.464;8.712;2024-02-14T01:37:09;10.43;;;4.10;;
25351;SDS011;13304;48.464;8.712;2024-02-14T01:39:57;10.52;;;4.05;;
25351;SDS011;13304;48.464;8.712;2024-02-14T01:42:44;10.70;;;3.92;;
25351;SDS011;13304;48.464;8.712;2024-02-14T01:45:20;10.30;;;3.97;;
25351;SDS011;13304;48.464;8.712;2024-02-14T01:47:52;9.07;;;3.97;;
25351;SDS011;13304;48.464;8.712;2024-02-14T01:50:48;9.15;;;4.20;;
25351;SDS011;13304;48.464;8.712;2024-02-14T01:53:37;8.65;;;3.65;;
25351;SDS011;13304;48.464;8.712;2024-02-14T01:56:10;7.90;;;3.65;;
25351;SDS011;13304;48.464;8.712;2024-02-14T01:58:46;9.18;;;3.42;;
25351;SDS011;13304;48.464;8.712;2024-02-14T02:01:21;9.82;;;3.83;;
25351;SDS011;13304;48.464;8.712;2024-02-14T02:03:53;8.73;;;3.72;;
25351;SDS011;13304;48.464;8.712;2024-02-14T02:06:25;8.73;;;3.65;;
25351;SDS011;13304;48.464;8.712;2024-02-14T02:08:55;7.72;;;3.40;;
25351;SDS011;13304;48.464;8.712;2024-02-14T02:11:28;7.05;;;2.95;;
25351;SDS011;13304;48.464;8.712;2024-02-14T02:14:08;9.48;;;3.80;;
25351;SDS011;13304;48.464;8.712;2024-02-14T02:16:37;10.00;;;3.53;;
25351;SDS011;13304;48.464;8.712;2024-02-14T02:19:09;7.28;;;3.67;;
25351;SDS011;13304;48.464;8.712;2024-02-14T02:21:43;6.95;;;3.60;;
25351;SDS011;13304;48.464;8.712;2024-02-14T02:24:29;6.90;;;3.22;;
25351;SDS011;13304;48.464;8.712;2024-02-14T02:27:19;8.25;;;3.45;;
25351;SDS011;13304;48.464;8.712;2024-02-14T02:30:10;8.80;;;2.95;;
25351;SDS011;13304;48.464;8.712;2024-02-14T02:32:38;9.85;;;3.35;;
25351;SDS011;13304;48.464;8.712;2024-02-14T02:35:08;6.32;;;3.13;;
25351;SDS011;13304;48.464;8.712;2024-02-14T02:37:55;9.63;;;2.95;;
25351;SDS011;13304;48.464;8.712;2024-02-14T02:40:29;8.93;;;3.30;;
25351;SDS011;13304;48.464;8.712;2024-02-14T02:43:18;7.50;;;2.63;;
25351;SDS011;13304;48.464;8.712;2024-02-14T02:45:46;6.07;;;2.80;;
25351;SDS011;13304;48.464;8.712;2024-02-14T02:48:28;8.95;;;3.20;;
25351;SDS011;13304;48.464;8.712;2024-02-14T02:50:59;6.90;;;3.25;;
25351;SDS011;13304;48.464;8.712;2024-02-14T02:53:31;12.35;;;3.10;;
25351;SDS011;13304;48.464;8.712;2024-02-14T02:56:00;6.30;;;2.83;;
25351;SDS011;13304;48.464;8.712;2024-02-14T02:58:28;8.27;;;3.00;;
25351;SDS011;13304;48.464;8.712;2024-02-14T03:00:57;7.68;;;2.88;;
25351;SDS011;13304;48.464;8.712;2024-02-14T03:03:25;7.25;;;2.90;;
25351;SDS011;13304;48.464;8.712;2024-02-14T03:05:54;6.30;;;2.73;;
25351;SDS011;13304;48.464;8.712;2024-02-14T03:08:28;8.88;;;3.15;;
25351;SDS011;13304;48.464;8.712;2024-02-14T03:11:15;6.45;;;3.00;;
25351;SDS011;13304;48.464;8.712;2024-02-14T03:13:51;7.45;;;3.00;;
25351;SDS011;13304;48.464;8.712;2024-02-14T03:16:22;8.88;;;2.72;;
25351;SDS011;13304;48.464;8.712;2024-02-14T03:19:24;6.35;;;2.72;;
25351;SDS011;13304;48.464;8.712;2024-02-14T03:21:52;8.45;;;2.75;;
25351;SDS011;13304;48.464;8.712;2024-02-14T03:24:31;4.80;;;2.63;;
25351;SDS011;13304;48.464;8.712;2024-02-14T03:27:02;9.20;;;2.97;;
25351;SDS011;13304;48.464;8.712;2024-02-14T03:29:35;10.60;;;2.75;;
25351;SDS011;13304;48.464;8.712;2024-02-14T03:32:30;7.78;;;2.60;;
25351;SDS011;13304;48.464;8.712;2024-02-14T03:35:01;7.22;;;2.40;;
25351;SDS011;13304;48.464;8.712;2024-02-14T03:37:34;11.35;;;2.83;;
25351;SDS011;13304;48.464;8.712;2024-02-14T03:40:03;5.32;;;2.35;;
25351;SDS011;13304;48.464;8.712;2024-02-14T03:42:44;7.13;;;2.40;;
25351;SDS011;13304;48.464;8.712;2024-02-14T03:45:18;7.68;;;2.50;;
25351;SDS011;13304;48.464;8.712;2024-02-14T03:48:08;7.70;;;2.20;;
25351;SDS011;13304;48.464;8.712;2024-02-14T03:50:41;8.30;;;2.67;;
25351;SDS011;13304;48.464;8.712;2024-02-14T03:53:48;4.97;;;2.35;;
25351;SDS011;13304;48.464;8.712;2024-02-14T03:56:15;8.23;;;2.40;;
25351;SDS011;13304;48.464;8.712;2024-02-14T03:58:42;5.45;;;2.30;;
25351;SDS011;13304;48.464;8.712;2024-02-14T04:01:08;5.68;;;2.30;;
25351;SDS011;13304;48.464;8.712;2024-02-14T04:03:54;9.48;;;2.80;;
25351;SDS011;13304;48.464;8.712;2024-02-14T04:06:21;5.15;;;2.05;;
25351;SDS011;13304;48.464;8.712;2024-02-14T04:09:08;6.07;;;2.65;;
25351;SDS011;13304;48.464;8.712;2024-02-14T04:11:34;4.70;;;2.42;;
25351;SDS011;13304;48.464;8.712;2024-02-14T04:14:00;5.10;;;2.10;;
25351;SDS011;13304;48.464;8.712;2024-02-14T04:16:25;8.73;;;2.63;;
25351;SDS011;13304;48.464;8.712;2024-02-14T04:18:51;7.03;;;2.78;;
25351;SDS011;13304;48.464;8.712;2024-02-14T04:21:18;4.50;;;2.25;;
25351;SDS011;13304;48.464;8.712;2024-02-14T04:23:45;5.97;;;2.78;;
25351;SDS011;13304;48.464;8.712;2024-02-14T04:26:17;4.88;;;2.30;;
25351;SDS011;13304;48.464;8.712;2024-02-14T04:28:46;4.22;;;2.10;;
25351;SDS011;13304;48.464;8.712;2024-02-14T04:31:12;7.85;;;2.60;;
25351;SDS011;13304;48.464;8.712;2024-02-14T04:33:38;6.57;;;2.50;;
25351;SDS011;13304;48.464;8.712;2024-02-14T04:36:05;5.70;;;3.15;;
25351;SDS011;13304;48.464;8.712;2024-02-14T04:38:31;6.07;;;2.83;;
25351;SDS011;13304;48.464;8.712;2024-02-14T04:40:57;6.07;;;2.65;;
25351;SDS011;13304;48.464;8.712;2024-02-14T04:43:24;8.90;;;2.65;;
25351;SDS011;13304;48.464;8.712;2024-02-14T04:45:51;6.72;;;2.40;;
25351;SDS011;13304;48.464;8.712;2024-02-14T04:48:19;5.15;;;1.70;;
25351;SDS011;13304;48.464;8.712;2024-02-14T04:51:07;5.40;;;2.00;;
25351;SDS011;13304;48.464;8.712;2024-02-14T04:53:55;5.93;;;2.10;;
25351;SDS011;13304;48.464;8.712;2024-02-14T04:56:35;4.15;;;1.70;;
25351;SDS011;13304;48.464;8.712;2024-02-14T04:59:42;6.70;;;2.30;;
25351;SDS011;13304;48.464;8.712;2024-02-14T05:02:07;5.07;;;2.10;;
25351;SDS011;13304;48.464;8.712;2024-02-14T05:04:33;6.55;;;2.00;;
25351;SDS011;13304;48.464;8.712;2024-02-14T05:07:40;7.13;;;2.15;;
25351;SDS011;13304;48.464;8.712;2024-02-14T05:10:08;6.65;;;2.17;;
25351;SDS011;13304;48.464;8.712;2024-02-14T05:12:39;6.45;;;2.00;;
25351;SDS011;13304;48.464;8.712;2024-02-14T05:15:06;6.68;;;2.22;;
25351;SDS011;13304;48.464;8.712;2024-02-14T05:17:53;4.43;;;1.98;;
25351;SDS011;13304;48.464;8.712;2024-02-14T05:21:00;8.68;;;5.25;;
25351;SDS011;13304;48.464;8.712;2024-02-14T05:23:49;9.30;;;3.58;;
25351;SDS011;13304;48.464;8.712;2024-02-14T05:26:16;5.55;;;2.97;;
25351;SDS011;13304;48.464;8.712;2024-02-14T05:29:03;7.05;;;2.72;;
25351;SDS011;13304;48.464;8.712;2024-02-14T05:31:49;4.32;;;2.75;;
25351;SDS011;13304;48.464;8.712;2024-02-14T05:34:21;6.10;;;2.42;;
25351;SDS011;13304;48.464;8.712;2024-02-14T05:36:47;5.70;;;2.33;;
25351;SDS011;13304;48.464;8.712;2024-02-14T05:39:14;6.95;;;2.40;;
25351;SDS011;13304;48.464;8.712;2024-02-14T05:41:40;8.68;;;2.63;;
25351;SDS011;13304;48.464;8.712;2024-02-14T05:44:09;6.78;;;2.15;;
25351;SDS011;13304;48.464;8.712;2024-02-14T05:46:37;6.53;;;2.08;;
25351;SDS011;13304;48.464;8.712;2024-02-14T05:49:04;11.50;;;2.85;;
25351;SDS011;13304;48.464;8.712;2024-02-14T05:51:51;6.50;;;2.08;;
25351;SDS011;13304;48.464;8.712;2024-02-14T05:54:19;8.98;;;2.53;;
25351;SDS011;13304;48.464;8.712;2024-02-14T05:57:56;4.63;;;1.92;;
25351;SDS011;13304;48.464;8.712;2024-02-14T06:01:10;6.78;;;1.90;;
25351;SDS011;13304;48.464;8.712;2024-02-14T06:03:36;5.18;;;2.38;;
25351;SDS011;13304;48.464;8.712;2024-02-14T06:06:02;4.68;;;2.13;;
25351;SDS011;13304;48.464;8.712;2024-02-14T06:08:27;4.47;;;2.20;;
25351;SDS011;13304;48.464;8.712;2024-02-14T06:10:53;10.20;;;3.20;;
25351;SDS011;13304;48.464;8.712;2024-02-14T06:13:19;5.70;;;2.20;;
25351;SDS011;13304;48.464;8.712;2024-02-14T06:15:44;6.07;;;2.13;;
25351;SDS011;13304;48.464;8.712;2024-02-14T06:18:10;8.35;;;2.90;;
25351;SDS011;13304;48.464;8.712;2024-02-14T06:20:36;11.43;;;2.90;;
25351;SDS011;13304;48.464;8.712;2024-02-14T06:23:04;7.00;;;2.42;;
25351;SDS011;13304;48.464;8.712;2024-02-14T06:25:29;7.70;;;1.90;;
25351;SDS011;13304;48.464;8.712;2024-02-14T06:27:55;4.72;;;2.13;;
25351;SDS011;13304;48.464;8.712;2024-02-14T06:30:21;7.97;;;2.33;;
25351;SDS011;13304;48.464;8.712;2024-02-14T06:32:46;8.82;;;2.78;;
25351;SDS011;13304;48.464;8.712;2024-02-14T06:35:12;12.50;;;6.18;;
25351;SDS011;13304;48.464;8.712;2024-02-14T06:37:40;18.55;;;7.50;;
25351;SDS011;13304;48.464;8.712;2024-02-14T06:40:05;10.20;;;3.28;;
25351;SDS011;13304;48.464;8.712;2024-02-14T06:42:33;9.05;;;2.70;;
25351;SDS011;13304;48.464;8.712;2024-02-14T06:44:59;8.90;;;2.80;;
25351;SDS011;13304;48.464;8.712;2024-02-14T06:47:25;7.32;;;2.45;;
25351;SDS011;13304;48.464;8.712;2024-02-14T06:49:55;4.97;;;2.40;;
25351;SDS011;13304;48.464;8.712;2024-02-14T06:52:21;9.23;;;3.35;;
25351;SDS011;13304;48.464;8.712;2024-02-14T06:54:46;11.27;;;3.38;;
25351;SDS011;13304;48.464;8.712;2024-02-14T06:57:13;6.10;;;2.53;;
25351;SDS011;13304;48.464;8.712;2024-02-14T06:59:39;5.63;;;2.22;;
25351;SDS011;13304;48.464;8.712;2024-02-14T07:02:05;5.35;;;2.33;;
25351;SDS011;13304;48.464;8.712;2024-02-14T07:04:31;8.35;;;2.63;;
25351;SDS011;13304;48.464;8.712;2024-02-14T07:06:57;9.80;;;2.22;;
25351;SDS011;13304;48.464;8.712;2024-02-14T07:09:23;6.43;;;2.00;;
25351;SDS011;13304;48.464;8.712;2024-02-14T07:11:50;5.30;;;2.13;;
25351;SDS011;13304;48.464;8.712;2024-02-14T07:14:18;6.43;;;2.35;;
25351;SDS011;13304;48.464;8.712;2024-02-14T07:16:44;5.00;;;1.90;;
25351;SDS011;13304;48.464;8.712;2024-02-14T07:19:10;6.90;;;1.85;;
25351;SDS011;13304;48.464;8.712;2024-02-14T07:21:36;6.25;;;2.30;;
25351;SDS011;13304;48.464;8.712;2024-02-14T07:24:03;4.35;;;2.50;;
25351;SDS011;13304;48.464;8.712;2024-02-14T07:26:30;8.23;;;2.25;;
25351;SDS011;13304;48.464;8.712;2024-02-14T07:28:56;6.97;;;2.33;;
25351;SDS011;13304;48.464;8.712;2024-02-14T07:31:21;8.32;;;2.42;;
25351;SDS011;13304;48.464;8.712;2024-02-14T07:33:47;4.63;;;2.28;;
25351;SDS011;13304;48.464;8.712;2024-02-14T07:36:14;5.97;;;2.22;;
25351;SDS011;13304;48.464;8.712;2024-02-14T07:38:41;3.63;;;1.95;;
25351;SDS011;13304;48.464;8.712;2024-02-14T07:41:07;4.63;;;2.13;;
25351;SDS011;13304;48.464;8.712;2024-02-14T07:43:33;6.65;;;1.65;;
25351;SDS011;13304;48.464;8.712;2024-02-14T07:45:59;4.80;;;2.05;;
25351;SDS011;13304;48.464;8.712;2024-02-14T07:48:25;5.45;;;2.55;;
25351;SDS011;13304;48.464;8.712;2024-02-14T07:50:51;4.40;;;2.28;;
25351;SDS011;13304;48.464;8.712;2024-02-14T07:53:16;6.78;;;1.83;;
25351;SDS011;13304;48.464;8.712;2024-02-14T07:55:42;8.55;;;2.65;;
25351;SDS011;13304;48.464;8.712;2024-02-14T07:58:07;6.43;;;2.13;;
25351;SDS011;13304;48.464;8.712;2024-02-14T08:00:33;6.70;;;2.08;;
25351;SDS011;13304;48.464;8.712;2024-02-14T08:02:59;8.68;;;1.98;;
25351;SDS011;13304;48.464;8.712;2024-02-14T08:05:24;7.30;;;1.67;;
25351;SDS011;13304;48.464;8.712;2024-02-14T08:07:50;8.18;;;2.58;;
25351;SDS011;13304;48.464;8.712;2024-02-14T08:10:16;7.38;;;2.63;;
25351;SDS011;13304;48.464;8.712;2024-02-14T08:12:42;6.57;;;2.28;;
25351;SDS011;13304;48.464;8.712;2024-02-14T08:15:08;7.43;;;2.42;;
25351;SDS011;13304;48.464;8.712;2024-02-14T08:17:34;6.72;;;2.20;;
25351;SDS011;13304;48.464;8.712;2024-02-14T08:20:00;7.85;;;1.98;;
25351;SDS011;13304;48.464;8.712;2024-02-14T08:22:26;12.75;;;2.90;;
25351;SDS011;13304;48.464;8.712;2024-02-14T08:24:52;18.73;;;2.60;;
25351;SDS011;13304;48.464;8.712;2024-02-14T08:27:18;6.68;;;2.42;;
25351;SDS011;13304;48.464;8.712;2024-02-14T08:29:43;6.95;;;2.00;;
25351;SDS011;13304;48.464;8.712;2024-02-14T08:32:09;9.68;;;2.22;;
25351;SDS011;13304;48.464;8.712;2024-02-14T08:34:34;7.05;;;2.03;;
25351;SDS011;13304;48.464;8.712;2024-02-14T08:37:00;3.83;;;1.98;;
25351;SDS011;13304;48.464;8.712;2024-02-14T08:39:29;8.35;;;2.38;;
25351;SDS011;13304;48.464;8.712;2024-02-14T08:41:56;4.50;;;2.03;;
25351;SDS011;13304;48.464;8.712;2024-02-14T08:44:21;5.00;;;1.73;;
25351;SDS011;13304;48.464;8.712;2024-02-14T08:46:47;5.30;;;1.90;;
25351;SDS011;13304;48.464;8.712;2024-02-14T08:49:16;8.27;;;4.30;;
25351;SDS011;13304;48.464;8.712;2024-02-14T08:51:41;6.25;;;2.67;;
25351;SDS011;13304;48.464;8.712;2024-02-14T08:54:09;7.05;;;2.30;;
25351;SDS011;13304;48.464;8.712;2024-02-14T08:56:34;6.45;;;2.20;;
25351;SDS011;13304;48.464;8.712;2024-02-14T08:59:01;4.13;;;2.28;;
25351;SDS011;13304;48.464;8.712;2024-02-14T09:01:29;5.78;;;2.03;;
25351;SDS011;13304;48.464;8.712;2024-02-14T09:03:55;6.07;;;2.10;;
25351;SDS011;13304;48.464;8.712;2024-02-14T09:06:21;4.70;;;1.83;;
25351;SDS011;13304;48.464;8.712;2024-02-14T09:08:47;5.45;;;1.80;;
25351;SDS011;13304;48.464;8.712;2024-02-14T09:11:19;5.53;;;1.80;;
25351;SDS011;13304;48.464;8.712;2024-02-14T09:13:45;5.28;;;1.55;;
25351;SDS011;13304;48.464;8.712;2024-02-14T09:16:14;6.40;;;1.67;;
25351;SDS011;13304;48.464;8.712;2024-02-14T09:18:40;4.47;;;1.65;;
25351;SDS011;13304;48.464;8.712;2024-02-14T09:21:06;6.65;;;1.98;;
25351;SDS011;13304;48.464;8.712;2024-02-14T09:23:32;4.65;;;1.75;;
25351;SDS011;13304;48.464;8.712;2024-02-14T09:25:58;5.47;;;1.58;;
25351;SDS011;13304;48.464;8.712;2024-02-14T09:28:24;5.45;;;1.60;;
25351;SDS011;13304;48.464;8.712;2024-02-14T09:30:52;4.22;;;1.58;;
25351;SDS011;13304;48.464;8.712;2024-02-14T09:33:19;4.68;;;1.55;;
25351;SDS011;13304;48.464;8.712;2024-02-14T09:35:45;5.15;;;1.70;;
25351;SDS011;13304;48.464;8.712;2024-02-14T09:38:13;3.22;;;1.63;;
25351;SDS011;13304;48.464;8.712;2024-02-14T09:40:42;5.93;;;1.63;;
25351;SDS011;13304;48.464;8.712;2024-02-14T09:43:21;3.45;;;1.48;;
25351;SDS011;13304;48.464;8.712;2024-02-14T09:46:06;5.03;;;1.67;;
25351;SDS011;13304;48.464;8.712;2024-02-14T09:48:33;3.90;;;1.52;;
25351;SDS011;13304;48.464;8.712;2024-02-14T09:50:59;4.72;;;1.30;;
25351;SDS011;13304;48.464;8.712;2024-02-14T09:53:25;2.85;;;1.42;;
25351;SDS011;13304;48.464;8.712;2024-02-14T09:55:53;1.88;;;1.15;;
25351;SDS011;13304;48.464;8.712;2024-02-14T09:58:20;5.25;;;1.20;;
25351;SDS011;13304;48.464;8.712;2024-02-14T10:00:46;3.60;;;1.30;;
25351;SDS011;13304;48.464;8.712;2024-02-14T10:03:12;4.22;;;1.45;;
25351;SDS011;13304;48.464;8.712;2024-02-14T10:05:37;5.88;;;1.13;;
25351;SDS011;13304;48.464;8.712;2024-02-14T10:08:03;4.50;;;1.33;;
25351;SDS011;13304;48.464;8.712;2024-02-14T10:10:33;4.38;;;1.50;;
25351;SDS011;13304;48.464;8.712;2024-02-14T10:13:05;3.03;;;1.10;;
25351;SDS011;13304;48.464;8.712;2024-02-14T10:15:32;3.17;;;1.13;;
25351;SDS011;13304;48.464;8.712;2024-02-14T10:17:58;5.25;;;1.13;;
25351;SDS011;13304;48.464;8.712;2024-02-14T10:20:28;3.53;;;1.27;;
25351;SDS011;13304;48.464;8.712;2024-02-14T10:23:01;4.65;;;1.40;;
25351;SDS011;13304;48.464;8.712;2024-02-14T10:25:28;9.95;;;1.00;;
25351;SDS011;13304;48.464;8.712;2024-02-14T10:28:03;5.13;;;1.23;;
25351;SDS011;13304;48.464;8.712;2024-02-14T10:30:35;3.88;;;1.40;;
25351;SDS011;13304;48.464;8.712;2024-02-14T10:33:06;2.47;;;1.13;;
25351;SDS011;13304;48.464;8.712;2024-02-14T10:35:32;2.17;;;1.02;;
25351;SDS011;13304;48.464;8.712;2024-02-14T10:38:02;5.30;;;1.30;;
25351;SDS011;13304;48.464;8.712;2024-02-14T10:40:28;3.20;;;1.20;;
25351;SDS011;13304;48.464;8.712;2024-02-14T10:42:56;2.10;;;1.00;;
25351;SDS011;13304;48.464;8.712;2024-02-14T10:45:23;2.25;;;0.90;;
25351;SDS011;13304;48.464;8.712;2024-02-14T10:47:52;3.70;;;1.23;;
25351;SDS011;13304;48.464;8.712;2024-02-14T10:50:24;3.00;;;1.27;;
25351;SDS011;13304;48.464;8.712;2024-02-14T10:52:53;2.60;;;1.15;;
25351;SDS011;13304;48.464;8.712;2024-02-14T10:55:21;4.63;;;1.40;;
25351;SDS011;13304;48.464;8.712;2024-02-14T10:57:51;3.15;;;1.20;;
25351;SDS011;13304;48.464;8.712;2024-02-14T11:00:19;3.63;;;1.55;;
25351;SDS011;13304;48.464;8.712;2024-02-14T11:02:45;2.38;;;1.10;;
25351;SDS011;13304;48.464;8.712;2024-02-14T11:05:14;2.17;;;1.17;;
25351;SDS011;13304;48.464;8.712;2024-02-14T11:07:46;4.65;;;0.90;;
25351;SDS011;13304;48.464;8.712;2024-02-14T11:10:18;3.25;;;1.15;;
25351;SDS011;13304;48.464;8.712;2024-02-14T11:12:46;2.47;;;0.93;;
25351;SDS011;13304;48.464;8.712;2024-02-14T11:15:19;2.45;;;0.93;;
25351;SDS011;13304;48.464;8.712;2024-02-14T11:17:46;1.40;;;0.80;;
25351;SDS011;13304;48.464;8.712;2024-02-14T11:22:50;1.77;;;1.00;;
25351;SDS011;13304;48.464;8.712;2024-02-14T11:25:37;4.50;;;1.00;;
25351;SDS011;13304;48.464;8.712;2024-02-14T11:30:58;3.88;;;0.90;;
25351;SDS011;13304;48.464;8.712;2024-02-14T11:33:28;1.23;;;0.70;;
25351;SDS011;13304;48.464;8.712;2024-02-14T11:35:55;1.75;;;0.90;;
25351;SDS011;13304;48.464;8.712;2024-02-14T11:38:21;2.78;;;0.80;;
25351;SDS011;13304;48.464;8.712;2024-02-14T11:40:53;2.40;;;0.70;;
25351;SDS011;13304;48.464;8.712;2024-02-14T11:43:22;3.85;;;0.65;;
25351;SDS011;13304;48.464;8.712;2024-02-14T11:45:48;1.23;;;0.70;;
25351;SDS011;13304;48.464;8.712;2024-02-14T11:48:20;2.38;;;0.98;;
25351;SDS011;13304;48.464;8.712;2024-02-14T11:50:48;3.07;;;0.90;;
25351;SDS011;13304;48.464;8.712;2024-02-14T11:53:14;2.58;;;0.73;;
25351;SDS011;13304;48.464;8.712;2024-02-14T11:55:46;3.65;;;1.00;;
25351;SDS011;13304;48.464;8.712;2024-02-14T11:58:16;2.33;;;1.08;;
25351;SDS011;13304;48.464;8.712;2024-02-14T12:00:43;1.42;;;0.80;;
25351;SDS011;13304;48.464;8.712;2024-02-14T12:03:14;1.23;;;0.70;;
25351;SDS011;13304;48.464;8.712;2024-02-14T12:05:40;4.47;;;1.20;;
25351;SDS011;13304;48.464;8.712;2024-02-14T12:08:09;0.75;;;0.63;;
25351;SDS011;13304;48.464;8.712;2024-02-14T12:10:35;2.60;;;0.90;;
25351;SDS011;13304;48.464;8.712;2024-02-14T12:13:09;2.35;;;1.00;;
25351;SDS011;13304;48.464;8.712;2024-02-14T12:15:38;0.75;;;0.52;;
25351;SDS011;13304;48.464;8.712;2024-02-14T12:18:09;0.80;;;0.57;;
25351;SDS011;13304;48.464;8.712;2024-02-14T12:20:39;2.13;;;0.50;;
25351;SDS011;13304;48.464;8.712;2024-02-14T12:23:05;1.70;;;0.68;;
25351;SDS011;13304;48.464;8.712;2024-02-14T12:25:31;1.77;;;0.90;;
25351;SDS011;13304;48.464;8.712;2024-02-14T12:27:57;1.45;;;0.75;;
25351;SDS011;13304;48.464;8.712;2024-02-14T12:33:13;1.10;;;0.60;;
25351;SDS011;13304;48.464;8.712;2024-02-14T12:35:43;2.45;;;1.15;;
25351;SDS011;13304;48.464;8.712;2024-02-14T12:38:11;1.60;;;0.80;;
25351;SDS011;13304;48.464;8.712;2024-02-14T12:40:38;1.67;;;0.77;;
25351;SDS011;13304;48.464;8.712;2024-02-14T12:43:10;2.63;;;1.20;;
25351;SDS011;13304;48.464;8.712;2024-02-14T12:45:41;1.80;;;0.80;;
25351;SDS011;13304;48.464;8.712;2024-02-14T12:48:07;1.70;;;0.93;;
25351;SDS011;13304;48.464;8.712;2024-02-14T12:50:34;1.38;;;0.60;;
25351;SDS011;13304;48.464;8.712;2024-02-14T12:53:03;2.05;;;0.98;;
25351;SDS011;13304;48.464;8.712;2024-02-14T12:55:30;1.88;;;0.75;;
25351;SDS011;13304;48.464;8.712;2024-02-14T12:57:56;3.30;;;0.55;;
25351;SDS011;13304;48.464;8.712;2024-02-14T13:00:22;0.82;;;0.50;;
25351;SDS011;13304;48.464;8.712;2024-02-14T13:02:49;1.27;;;0.50;;
25351;SDS011;13304;48.464;8.712;2024-02-14T13:05:15;1.20;;;0.70;;
25351;SDS011;13304;48.464;8.712;2024-02-14T13:07:41;1.10;;;0.70;;
25351;SDS011;13304;48.464;8.712;2024-02-14T13:10:07;1.60;;;0.70;;
25351;SDS011;13304;48.464;8.712;2024-02-14T13:12:35;1.98;;;0.80;;
25351;SDS011;13304;48.464;8.712;2024-02-14T13:15:02;1.30;;;0.63;;
25351;SDS011;13304;48.464;8.712;2024-02-14T13:17:28;1.75;;;0.50;;
25351;SDS011;13304;48.464;8.712;2024-02-14T13:19:54;1.67;;;0.73;;
25351;SDS011;13304;48.464;8.712;2024-02-14T13:22:20;1.60;;;0.80;;
25351;SDS011;13304;48.464;8.712;2024-02-14T13:24:46;1.63;;;0.80;;
25351;SDS011;13304;48.464;8.712;2024-02-14T13:27:12;3.08;;;0.60;;
25351;SDS011;13304;48.464;8.712;2024-02-14T13:29:38;1.95;;;0.73;;
25351;SDS011;13304;48.464;8.712;2024-02-14T13:32:03;7.45;;;0.60;;
25351;SDS011;13304;48.464;8.712;2024-02-14T13:34:32;1.67;;;0.70;;
25351;SDS011;13304;48.464;8.712;2024-02-14T13:36:58;1.52;;;0.68;;
25351;SDS011;13304;48.464;8.712;2024-02-14T13:39:25;1.90;;;0.70;;
25351;SDS011;13304;48.464;8.712;2024-02-14T13:41:50;2.60;;;0.80;;
25351;SDS011;13304;48.464;8.712;2024-02-14T13:44:17;2.90;;;0.70;;
25351;SDS011;13304;48.464;8.712;2024-02-14T13:46:43;1.50;;;0.70;;
25351;SDS011;13304;48.464;8.712;2024-02-14T13:49:15;2.38;;;0.65;;
25351;SDS011;13304;48.464;8.712;2024-02-14T13:51:46;2.00;;;0.75;;
25351;SDS011;13304;48.464;8.712;2024-02-14T13:54:13;1.17;;;0.60;;
25351;SDS011;13304;48.464;8.712;2024-02-14T13:56:38;0.73;;;0.50;;
25351;SDS011;13304;48.464;8.712;2024-02-14T13:59:22;2.00;;;0.60;;
25351;SDS011;13304;48.464;8.712;2024-02-14T14:01:51;1.33;;;0.65;;
25351;SDS011;13304;48.464;8.712;2024-02-14T14:04:17;2.35;;;0.70;;
25351;SDS011;13304;48.464;8.712;2024-02-14T14:06:46;0.70;;;0.57;;
25351;SDS011;13304;48.464;8.712;2024-02-14T14:09:12;0.90;;;0.52;;
25351;SDS011;13304;48.464;8.712;2024-02-14T14:11:38;0.98;;;0.70;;
25351;SDS011;13304;48.464;8.712;2024-02-14T14:14:04;1.25;;;0.55;;
25351;SDS011;13304;48.464;8.712;2024-02-14T14:16:30;1.15;;;0.60;;
25351;SDS011;13304;48.464;8.712;2024-02-14T14:18:58;3.13;;;0.60;;
25351;SDS011;13304;48.464;8.712;2024-02-14T14:21:24;0.70;;;0.60;;
25351;SDS011;13304;48.464;8.712;2024-02-14T14:23:50;1.23;;;0.60;;
25351;SDS011;13304;48.464;8.712;2024-02-14T14:26:15;2.42;;;0.60;;
25351;SDS011;13304;48.464;8.712;2024-02-14T14:28:44;0.77;;;0.50;;
25351;SDS011;13304;48.464;8.712;2024-02-14T14:31:11;1.58;;;0.50;;
25351;SDS011;13304;48.464;8.712;2024-02-14T14:33:37;3.13;;;0.60;;
25351;SDS011;13304;48.464;8.712;2024-02-14T14:36:05;3.50;;;0.90;;
25351;SDS011;13304;48.464;8.712;2024-02-14T14:38:31;1.42;;;0.77;;
25351;SDS011;13304;48.464;8.712;2024-02-14T14:40:57;1.10;;;0.60;;
25351;SDS011;13304;48.464;8.712;2024-02-14T14:43:24;0.82;;;0.50;;
25351;SDS011;13304;48.464;8.712;2024-02-14T14:45:50;0.82;;;0.50;;
25351;SDS011;13304;48.464;8.712;2024-02-14T14:48:18;1.45;;;0.50;;
25351;SDS011;13304;48.464;8.712;2024-02-14T14:50:44;1.17;;;0.63;;
25351;SDS011;13304;48.464;8.712;2024-02-14T14:53:09;0.63;;;0.52;;
25351;SDS011;13304;48.464;8.712;2024-02-14T14:55:54;1.23;;;0.50;;
25351;SDS011;13304;48.464;8.712;2024-02-14T14:58:24;1.35;;;0.50;;
25351;SDS011;13304;48.464;8.712;2024-02-14T15:00:55;0.77;;;0.40;;
25351;SDS011;13304;48.464;8.712;2024-02-14T15:03:22;1.25;;;0.70;;
25351;SDS011;13304;48.464;8.712;2024-02-14T15:05:48;0.80;;;0.60;;
25351;SDS011;13304;48.464;8.712;2024-02-14T15:08:14;1.20;;;0.70;;
25351;SDS011;13304;48.464;8.712;2024-02-14T15:10:40;1.00;;;0.70;;
25351;SDS011;13304;48.464;8.712;2024-02-14T15:13:08;1.08;;;0.80;;